Time;durP1;ratioP1;P1;durP2;ratioP2;P2;SDS_P1;SDS_P2;PMS_P1;PMS_P2;Temp;Humidity;BMP_temperature;BMP_pressure;BME280_temperature;BME280_humidity;BME280_pressure;Samples;Min_cycle;Max_cycle;Signal;HPM_P1;HPM_P2
2022/06/24 00:01:24;;;;;;;4.20;4.00;;;;;;;;;;5063204;28;24521;-47
2022/06/24 00:03:49;;;;;;;4.50;4.10;;;;;;;;;;5065056;28;24527;-46
2022/06/24 00:06:15;;;;;;;4.20;3.90;;;;;;;;;;5072291;28;24426;-46
2022/06/24 00:08:47;;;;;;;4.80;4.40;;;;;;;;;;5075102;28;25243;-46
2022/06/24 00:11:13;;;;;;;4.60;4.30;;;;;;;;;;5071231;28;24794;-47
2022/06/24 00:13:39;;;;;;;4.47;4.18;;;;;;;;;;5078118;28;24588;-47
2022/06/24 00:16:04;;;;;;;4.70;4.40;;;;;;;;;;5062308;28;24492;-46
2022/06/24 00:18:29;;;;;;;5.23;4.73;;;;;;;;;;5077357;28;25490;-46
2022/06/24 00:20:55;;;;;;;5.00;4.70;;;;;;;;;;5069510;28;24441;-46
2022/06/24 00:23:21;;;;;;;4.60;4.30;;;;;;;;;;5071946;28;24417;-46
2022/06/24 00:25:46;;;;;;;5.00;4.63;;;;;;;;;;5075283;28;24441;-46
2022/06/24 00:28:12;;;;;;;4.60;4.30;;;;;;;;;;5078858;28;25062;-46
2022/06/24 00:30:44;;;;;;;4.60;4.30;;;;;;;;;;5072432;28;24953;-47
2022/06/24 00:33:11;;;;;;;5.18;4.88;;;;;;;;;;5062983;28;24840;-47
2022/06/24 00:35:37;;;;;;;5.47;5.07;;;;;;;;;;5065240;28;24435;-46
2022/06/24 00:38:19;;;;;;;5.03;4.72;;;;;;;;;;5073555;28;24431;-47
2022/06/24 00:40:45;;;;;;;4.85;4.45;;;;;;;;;;5061704;28;24768;-47
2022/06/24 00:43:17;;;;;;;4.75;4.45;;;;;;;;;;5077093;28;24437;-47
2022/06/24 00:45:45;;;;;;;4.80;4.50;;;;;;;;;;5072702;28;24442;-47
2022/06/24 00:48:13;;;;;;;4.55;4.25;;;;;;;;;;5084885;28;24430;-48
2022/06/24 00:50:40;;;;;;;4.93;4.60;;;;;;;;;;5071630;28;24435;-47
2022/06/24 00:53:05;;;;;;;4.80;4.40;;;;;;;;;;5069450;28;24555;-47
2022/06/24 00:55:31;;;;;;;4.70;4.40;;;;;;;;;;5070113;28;24430;-46
2022/06/24 00:57:57;;;;;;;4.63;4.32;;;;;;;;;;5069182;28;24429;-47
2022/06/24 01:00:23;;;;;;;4.60;4.30;;;;;;;;;;5074427;28;24418;-46
2022/06/24 01:02:49;;;;;;;4.40;4.10;;;;;;;;;;5071800;28;24510;-47
2022/06/24 01:05:16;;;;;;;4.50;4.20;;;;;;;;;;5070163;28;24517;-46
2022/06/24 01:07:41;;;;;;;5.80;4.90;;;;;;;;;;5071185;28;24419;-47
2022/06/24 01:10:08;;;;;;;4.20;3.90;;;;;;;;;;5082951;28;24441;-46
2022/06/24 01:12:34;;;;;;;4.70;4.40;;;;;;;;;;5067975;28;24426;-47
2022/06/24 01:14:59;;;;;;;4.80;4.50;;;;;;;;;;5089228;28;24748;-47
2022/06/24 01:17:24;;;;;;;4.40;4.10;;;;;;;;;;5069753;28;24425;-46
2022/06/24 01:19:49;;;;;;;4.33;4.00;;;;;;;;;;5086952;28;24777;-47
2022/06/24 01:22:24;;;;;;;5.00;4.60;;;;;;;;;;5068449;28;24721;-46
2022/06/24 01:24:49;;;;;;;4.50;4.20;;;;;;;;;;5067090;28;24481;-46
2022/06/24 01:27:15;;;;;;;3.80;3.60;;;;;;;;;;5067127;28;24461;-46
2022/06/24 01:29:40;;;;;;;4.20;3.90;;;;;;;;;;5068732;28;24426;-46
2022/06/24 01:32:06;;;;;;;4.45;4.05;;;;;;;;;;5066278;28;24530;-46
2022/06/24 01:34:31;;;;;;;4.47;4.18;;;;;;;;;;5068424;28;24695;-46
2022/06/24 01:36:56;;;;;;;4.70;4.40;;;;;;;;;;5067545;28;24769;-46
2022/06/24 01:39:21;;;;;;;4.72;4.32;;;;;;;;;;5078257;28;24419;-46
2022/06/24 01:41:47;;;;;;;4.30;4.00;;;;;;;;;;5059577;28;24427;-47
2022/06/24 01:44:12;;;;;;;4.50;4.20;;;;;;;;;;5070145;28;25015;-47
2022/06/24 01:46:37;;;;;;;4.17;3.87;;;;;;;;;;5071772;28;24529;-47
2022/06/24 01:49:03;;;;;;;4.53;4.20;;;;;;;;;;5073806;28;24490;-46
2022/06/24 01:51:28;;;;;;;4.73;4.33;;;;;;;;;;5065229;28;24422;-46
2022/06/24 01:53:53;;;;;;;4.10;3.80;;;;;;;;;;5069165;28;24438;-49
2022/06/24 01:56:19;;;;;;;4.20;3.90;;;;;;;;;;5067013;28;24453;-47
2022/06/24 01:58:44;;;;;;;4.37;4.17;;;;;;;;;;5077381;28;24422;-46
2022/06/24 02:01:10;;;;;;;4.30;4.00;;;;;;;;;;5065630;28;24430;-47
2022/06/24 02:03:35;;;;;;;4.00;3.70;;;;;;;;;;5064862;28;24585;-47
2022/06/24 02:06:02;;;;;;;4.43;4.13;;;;;;;;;;5062405;28;24510;-47
2022/06/24 02:08:27;;;;;;;4.00;3.70;;;;;;;;;;5067907;28;24503;-47
2022/06/24 02:13:36;;;;;;;4.40;4.00;;;;;;;;;;5062641;28;24504;-46
2022/06/24 02:16:03;;;;;;;4.50;4.10;;;;;;;;;;5059657;28;24423;-47
2022/06/24 02:18:28;;;;;;;4.25;3.95;;;;;;;;;;5079346;28;24418;-47
2022/06/24 02:20:54;;;;;;;4.53;4.22;;;;;;;;;;5053102;28;24476;-47
2022/06/24 02:23:19;;;;;;;4.50;4.20;;;;;;;;;;5063881;28;25031;-47
2022/06/24 02:25:45;;;;;;;4.35;3.95;;;;;;;;;;5069326;28;25045;-47
2022/06/24 02:28:10;;;;;;;4.63;4.23;;;;;;;;;;5066256;28;25462;-47
2022/06/24 02:30:35;;;;;;;4.90;4.50;;;;;;;;;;5064862;28;24788;-47
2022/06/24 02:33:01;;;;;;;4.60;4.30;;;;;;;;;;5065039;28;24526;-47
2022/06/24 02:35:26;;;;;;;4.53;4.23;;;;;;;;;;5076700;28;24572;-47
2022/06/24 02:37:51;;;;;;;4.30;4.10;;;;;;;;;;5077761;28;24437;-47
2022/06/24 02:43:00;;;;;;;6.47;4.40;;;;;;;;;;5068172;28;24430;-47
2022/06/24 02:45:25;;;;;;;4.80;4.40;;;;;;;;;;5058160;28;24434;-47
2022/06/24 02:47:50;;;;;;;4.67;4.30;;;;;;;;;;5067956;28;24422;-47
2022/06/24 02:50:16;;;;;;;4.53;4.20;;;;;;;;;;5064552;28;24587;-47
2022/06/24 02:52:41;;;;;;;4.20;3.90;;;;;;;;;;5067031;28;24474;-47
2022/06/24 02:55:06;;;;;;;4.30;4.00;;;;;;;;;;5066745;28;24437;-47
2022/06/24 02:57:32;;;;;;;4.40;4.20;;;;;;;;;;5064901;28;24411;-45
2022/06/24 02:59:57;;;;;;;4.40;4.10;;;;;;;;;;5060575;28;24503;-46
2022/06/24 03:02:22;;;;;;;4.65;4.35;;;;;;;;;;5076819;28;24711;-47
2022/06/24 03:04:47;;;;;;;5.78;5.28;;;;;;;;;;5051873;28;24423;-46
2022/06/24 03:07:12;;;;;;;5.40;4.90;;;;;;;;;;5065928;28;24484;-47
2022/06/24 03:09:37;;;;;;;4.70;4.40;;;;;;;;;;5063296;28;24976;-46
2022/06/24 03:12:03;;;;;;;4.30;4.00;;;;;;;;;;5068589;28;24433;-46
2022/06/24 03:14:28;;;;;;;4.23;3.90;;;;;;;;;;5052648;28;24901;-47
2022/06/24 03:16:53;;;;;;;4.25;3.95;;;;;;;;;;5064386;28;24518;-47
2022/06/24 03:19:18;;;;;;;4.50;4.10;;;;;;;;;;5065736;28;24422;-47
2022/06/24 03:21:43;;;;;;;3.83;3.53;;;;;;;;;;5063758;28;24534;-48
2022/06/24 03:24:08;;;;;;;4.63;4.28;;;;;;;;;;5055383;28;24984;-47
2022/06/24 03:26:34;;;;;;;4.40;4.00;;;;;;;;;;5064864;28;24484;-46
2022/06/24 03:28:59;;;;;;;4.70;4.38;;;;;;;;;;5054080;28;24503;-47
2022/06/24 03:31:24;;;;;;;4.70;4.30;;;;;;;;;;5061542;28;24434;-47
2022/06/24 03:33:49;;;;;;;4.40;4.00;;;;;;;;;;5058794;28;24415;-47
2022/06/24 03:36:14;;;;;;;5.23;4.83;;;;;;;;;;5060152;28;24569;-46
2022/06/24 03:38:39;;;;;;;5.15;4.65;;;;;;;;;;5071383;28;24422;-47
2022/06/24 03:41:04;;;;;;;5.07;4.60;;;;;;;;;;5065109;28;24428;-47
2022/06/24 03:43:30;;;;;;;4.70;4.20;;;;;;;;;;5069196;28;25014;-47
2022/06/24 03:46:02;;;;;;;4.95;4.63;;;;;;;;;;5056154;28;24527;-47
2022/06/24 03:48:27;;;;;;;4.65;4.35;;;;;;;;;;5053781;28;24434;-47
2022/06/24 03:50:52;;;;;;;4.97;4.35;;;;;;;;;;5061835;28;24467;-47
2022/06/24 03:53:17;;;;;;;4.15;3.75;;;;;;;;;;5066164;28;24433;-46
2022/06/24 03:55:47;;;;;;;4.40;4.10;;;;;;;;;;5070784;28;24430;-46
2022/06/24 03:58:12;;;;;;;5.20;4.70;;;;;;;;;;5051854;28;24565;-46
2022/06/24 04:00:37;;;;;;;4.60;4.30;;;;;;;;;;5066444;28;24844;-46
2022/06/24 04:03:02;;;;;;;4.70;4.30;;;;;;;;;;5061679;28;24429;-46
2022/06/24 04:05:27;;;;;;;4.60;4.30;;;;;;;;;;5058916;28;24429;-47
2022/06/24 04:07:52;;;;;;;5.72;5.18;;;;;;;;;;5072148;28;24871;-47
2022/06/24 04:10:18;;;;;;;5.90;5.40;;;;;;;;;;5073575;28;24433;-46
2022/06/24 04:12:43;;;;;;;5.37;4.97;;;;;;;;;;5068685;28;24446;-45
2022/06/24 04:15:14;;;;;;;5.00;4.50;;;;;;;;;;5058606;28;24422;-46
2022/06/24 04:17:39;;;;;;;5.47;4.97;;;;;;;;;;5051885;28;24572;-46
2022/06/24 04:20:05;;;;;;;5.97;5.30;;;;;;;;;;5059107;28;25004;-46
2022/06/24 04:22:30;;;;;;;4.57;4.17;;;;;;;;;;5073587;28;24418;-47
2022/06/24 04:24:56;;;;;;;5.07;4.25;;;;;;;;;;5076496;28;24440;-48
2022/06/24 04:27:21;;;;;;;4.50;4.20;;;;;;;;;;5060499;28;24809;-47
2022/06/24 04:29:46;;;;;;;5.10;4.60;;;;;;;;;;5065614;28;24433;-48
2022/06/24 04:32:11;;;;;;;4.70;4.40;;;;;;;;;;5055912;28;24497;-47
2022/06/24 04:34:37;;;;;;;4.50;4.20;;;;;;;;;;5074435;28;24472;-47
2022/06/24 04:37:02;;;;;;;4.93;4.53;;;;;;;;;;5068233;28;24423;-48
2022/06/24 04:39:27;;;;;;;4.85;4.45;;;;;;;;;;5067165;28;24973;-47
2022/06/24 04:41:52;;;;;;;4.50;4.20;;;;;;;;;;5069038;28;24458;-48
2022/06/24 04:44:17;;;;;;;4.38;3.97;;;;;;;;;;5068899;28;24450;-47
2022/06/24 04:46:43;;;;;;;4.90;4.50;;;;;;;;;;5068826;28;24415;-47
2022/06/24 04:49:08;;;;;;;4.83;4.53;;;;;;;;;;5064324;28;24562;-47
2022/06/24 04:51:33;;;;;;;5.28;4.78;;;;;;;;;;5066751;28;24419;-46
2022/06/24 04:53:58;;;;;;;5.40;4.90;;;;;;;;;;5069173;28;24399;-46
2022/06/24 04:56:24;;;;;;;4.80;4.40;;;;;;;;;;5067920;28;24506;-46
2022/06/24 04:58:49;;;;;;;4.63;4.32;;;;;;;;;;5068594;28;24403;-46
2022/06/24 05:01:14;;;;;;;5.22;4.80;;;;;;;;;;5072950;28;24445;-48
2022/06/24 05:03:39;;;;;;;5.10;4.70;;;;;;;;;;5067834;28;24415;-47
2022/06/24 05:06:04;;;;;;;4.63;4.32;;;;;;;;;;5068650;28;24596;-48
2022/06/24 05:08:30;;;;;;;4.88;4.10;;;;;;;;;;5066451;28;25105;-45
2022/06/24 05:10:55;;;;;;;4.67;4.30;;;;;;;;;;5064100;28;24477;-47
2022/06/24 05:13:20;;;;;;;4.30;4.00;;;;;;;;;;5064129;28;24419;-46
2022/06/24 05:15:45;;;;;;;4.35;4.05;;;;;;;;;;5065326;28;24399;-47
2022/06/24 05:18:10;;;;;;;5.10;4.60;;;;;;;;;;5059198;28;24459;-47
2022/06/24 05:20:36;;;;;;;4.00;3.80;;;;;;;;;;5053222;28;24521;-48
2022/06/24 05:23:01;;;;;;;5.13;4.47;;;;;;;;;;5067721;28;25327;-47
2022/06/24 05:25:26;;;;;;;4.80;4.40;;;;;;;;;;5061425;28;24430;-46
2022/06/24 05:27:51;;;;;;;4.25;3.95;;;;;;;;;;5064948;28;24487;-46
2022/06/24 05:30:16;;;;;;;4.40;4.10;;;;;;;;;;5065534;28;24568;-47
2022/06/24 05:32:42;;;;;;;4.40;4.00;;;;;;;;;;5066185;28;24430;-46
2022/06/24 05:35:07;;;;;;;4.40;4.10;;;;;;;;;;5063913;28;24399;-47
2022/06/24 05:37:33;;;;;;;4.97;4.67;;;;;;;;;;5064228;28;24504;-46
2022/06/24 05:39:58;;;;;;;5.03;4.65;;;;;;;;;;5073807;28;24506;-46
2022/06/24 05:42:23;;;;;;;5.20;4.70;;;;;;;;;;5077689;28;24551;-46
2022/06/24 05:44:48;;;;;;;5.20;4.80;;;;;;;;;;5064530;28;24604;-47
2022/06/24 05:47:14;;;;;;;5.22;4.72;;;;;;;;;;5071427;28;24468;-47
2022/06/24 05:49:39;;;;;;;5.00;4.60;;;;;;;;;;5062777;28;24426;-47
2022/06/24 05:52:04;;;;;;;5.30;4.90;;;;;;;;;;5062580;28;24465;-47
2022/06/24 05:57:13;;;;;;;5.00;4.50;;;;;;;;;;5057358;28;24531;-47
2022/06/24 05:59:39;;;;;;;5.28;4.78;;;;;;;;;;5053470;28;24612;-47
2022/06/24 06:02:05;;;;;;;5.40;4.90;;;;;;;;;;5059121;28;24434;-48
2022/06/24 06:04:30;;;;;;;5.10;4.60;;;;;;;;;;5063972;28;24507;-48
2022/06/24 06:06:55;;;;;;;5.30;4.80;;;;;;;;;;5065529;28;24557;-46
2022/06/24 06:09:21;;;;;;;5.05;4.55;;;;;;;;;;5069081;28;24521;-46
2022/06/24 06:11:46;;;;;;;5.80;5.40;;;;;;;;;;5053416;28;24968;-46
2022/06/24 06:14:11;;;;;;;5.70;5.20;;;;;;;;;;5066185;28;24418;-46
2022/06/24 06:16:36;;;;;;;5.28;4.88;;;;;;;;;;5066825;28;24410;-46
2022/06/24 06:19:01;;;;;;;5.60;5.10;;;;;;;;;;5066276;28;24429;-46
2022/06/24 06:21:26;;;;;;;5.20;4.80;;;;;;;;;;5052731;28;24427;-46
2022/06/24 06:23:52;;;;;;;5.60;5.20;;;;;;;;;;5047103;28;24529;-46
2022/06/24 06:26:17;;;;;;;6.10;5.50;;;;;;;;;;5060636;28;25012;-47
2022/06/24 06:28:42;;;;;;;5.50;5.10;;;;;;;;;;5061505;28;24786;-47
2022/06/24 06:31:08;;;;;;;5.72;5.20;;;;;;;;;;5049609;28;24430;-46
2022/06/24 06:33:33;;;;;;;5.07;4.67;;;;;;;;;;5046548;28;24453;-46
2022/06/24 06:36:02;;;;;;;5.20;4.90;;;;;;;;;;5047838;28;24427;-45
2022/06/24 06:38:27;;;;;;;5.70;5.20;;;;;;;;;;5062593;28;24418;-47
2022/06/24 06:40:53;;;;;;;5.80;5.10;;;;;;;;;;5062653;28;24582;-47
2022/06/24 06:43:18;;;;;;;5.20;4.90;;;;;;;;;;5059381;28;24420;-46
2022/06/24 06:45:43;;;;;;;5.60;5.20;;;;;;;;;;5062025;28;24451;-46
2022/06/24 06:48:08;;;;;;;6.38;5.78;;;;;;;;;;5054989;28;24449;-46
2022/06/24 06:50:34;;;;;;;6.18;4.90;;;;;;;;;;5064065;28;24777;-46
2022/06/24 06:52:59;;;;;;;6.00;5.20;;;;;;;;;;5046809;28;24435;-47
2022/06/24 06:55:24;;;;;;;5.87;5.27;;;;;;;;;;5045491;28;24979;-46
2022/06/24 06:57:50;;;;;;;5.45;5.05;;;;;;;;;;5046295;28;24457;-47
2022/06/24 07:00:16;;;;;;;5.43;4.93;;;;;;;;;;5046571;28;24415;-47
2022/06/24 07:02:41;;;;;;;5.30;4.90;;;;;;;;;;5046747;28;24442;-47
2022/06/24 07:05:07;;;;;;;6.72;5.40;;;;;;;;;;5047057;28;24418;-47
2022/06/24 07:07:32;;;;;;;6.40;5.40;;;;;;;;;;5045904;28;24419;-46
2022/06/24 07:09:58;;;;;;;5.50;5.10;;;;;;;;;;5047177;28;24408;-47
2022/06/24 07:12:24;;;;;;;5.28;4.88;;;;;;;;;;5046724;28;24443;-46
2022/06/24 07:14:49;;;;;;;5.37;4.97;;;;;;;;;;5048181;28;24968;-46
2022/06/24 07:17:14;;;;;;;5.30;4.90;;;;;;;;;;5047717;28;24514;-46
2022/06/24 07:19:40;;;;;;;5.50;5.00;;;;;;;;;;5045646;28;24391;-45
2022/06/24 07:22:05;;;;;;;5.10;4.70;;;;;;;;;;5052234;28;25014;-46
2022/06/24 07:24:30;;;;;;;5.28;4.97;;;;;;;;;;5061751;28;24974;-48
2022/06/24 07:26:55;;;;;;;5.60;5.10;;;;;;;;;;5064029;28;24422;-47
2022/06/24 07:29:20;;;;;;;5.45;4.95;;;;;;;;;;5045722;28;24702;-47
2022/06/24 07:31:47;;;;;;;5.30;4.90;;;;;;;;;;5060627;28;24541;-46
2022/06/24 07:34:13;;;;;;;5.20;4.70;;;;;;;;;;5046922;28;24516;-46
2022/06/24 07:36:38;;;;;;;5.30;4.90;;;;;;;;;;5061696;28;24469;-46
2022/06/24 07:39:03;;;;;;;5.45;4.95;;;;;;;;;;5065843;28;24941;-46
2022/06/24 07:41:28;;;;;;;4.78;4.38;;;;;;;;;;5061789;28;24468;-46
2022/06/24 07:43:53;;;;;;;5.43;4.93;;;;;;;;;;5053225;28;24423;-47
2022/06/24 07:46:18;;;;;;;5.03;4.53;;;;;;;;;;5058427;28;24515;-47
2022/06/24 07:48:44;;;;;;;6.00;4.43;;;;;;;;;;5063930;28;24456;-47
2022/06/24 07:51:13;;;;;;;4.85;4.55;;;;;;;;;;5050090;28;24438;-47
2022/06/24 07:53:38;;;;;;;5.07;4.68;;;;;;;;;;5047431;28;24438;-46
2022/06/24 07:58:47;;;;;;;4.78;4.47;;;;;;;;;;5065601;28;24383;-47
2022/06/24 08:01:12;;;;;;;4.87;4.57;;;;;;;;;;5065273;28;24423;-47
2022/06/24 08:03:37;;;;;;;5.47;4.95;;;;;;;;;;5061976;28;25145;-47
2022/06/24 08:06:02;;;;;;;4.93;4.63;;;;;;;;;;5049189;28;24497;-47
2022/06/24 08:08:28;;;;;;;4.68;4.38;;;;;;;;;;5071043;28;24421;-46
2022/06/24 08:10:53;;;;;;;5.03;4.63;;;;;;;;;;5071618;28;24960;-47
2022/06/24 08:13:18;;;;;;;4.85;4.40;;;;;;;;;;5072065;28;24413;-47
2022/06/24 08:15:43;;;;;;;4.93;4.53;;;;;;;;;;5059565;28;24431;-47
2022/06/24 08:18:08;;;;;;;4.45;4.15;;;;;;;;;;5068070;28;25270;-47
2022/06/24 08:20:33;;;;;;;4.33;4.03;;;;;;;;;;5070959;28;24430;-48
2022/06/24 08:22:59;;;;;;;5.00;4.50;;;;;;;;;;5071595;28;24457;-46
2022/06/24 08:25:24;;;;;;;4.53;4.22;;;;;;;;;;5069212;28;24438;-48
2022/06/24 08:27:49;;;;;;;4.85;4.40;;;;;;;;;;5071404;28;24427;-48
2022/06/24 08:30:14;;;;;;;5.20;4.47;;;;;;;;;;5059330;28;24977;-47
2022/06/24 08:32:39;;;;;;;5.07;4.68;;;;;;;;;;5072459;28;24948;-47
2022/06/24 08:35:05;;;;;;;4.63;4.22;;;;;;;;;;5056649;28;25010;-46
2022/06/24 08:37:30;;;;;;;4.63;4.23;;;;;;;;;;5054873;28;24415;-47
2022/06/24 08:39:55;;;;;;;4.60;4.20;;;;;;;;;;5054633;28;24423;-47
2022/06/24 08:42:23;;;;;;;5.27;4.70;;;;;;;;;;5072146;28;24502;-47
2022/06/24 08:44:48;;;;;;;4.70;4.30;;;;;;;;;;5070221;28;25206;-46
2022/06/24 08:47:14;;;;;;;4.50;4.20;;;;;;;;;;5060890;28;24479;-45
2022/06/24 08:49:39;;;;;;;4.63;4.22;;;;;;;;;;5072304;28;24448;-45
2022/06/24 08:52:05;;;;;;;4.67;4.27;;;;;;;;;;5072124;28;24415;-46
2022/06/24 08:54:30;;;;;;;4.50;4.20;;;;;;;;;;5071816;28;24927;-46
2022/06/24 08:56:58;;;;;;;4.50;4.18;;;;;;;;;;5051929;28;24458;-46
2022/06/24 08:59:23;;;;;;;4.70;4.40;;;;;;;;;;5052050;28;24394;-45
2022/06/24 09:01:48;;;;;;;4.80;4.30;;;;;;;;;;5070711;28;24484;-47
2022/06/24 09:04:13;;;;;;;4.90;4.50;;;;;;;;;;5060803;28;24462;-48
2022/06/24 09:06:39;;;;;;;4.20;4.00;;;;;;;;;;5060258;28;25022;-46
2022/06/24 09:09:04;;;;;;;4.40;4.10;;;;;;;;;;5057327;28;25240;-47
2022/06/24 09:11:40;;;;;;;4.25;3.85;;;;;;;;;;5067629;28;24797;-47
2022/06/24 09:14:05;;;;;;;4.72;4.38;;;;;;;;;;5071741;28;24812;-47
2022/06/24 09:16:31;;;;;;;4.70;4.40;;;;;;;;;;5071328;28;25111;-46
2022/06/24 09:18:59;;;;;;;5.18;4.68;;;;;;;;;;5058497;28;24770;-47
2022/06/24 09:21:28;;;;;;;4.30;4.00;;;;;;;;;;5047628;28;24431;-47
2022/06/24 09:23:58;;;;;;;4.75;4.43;;;;;;;;;;5067324;28;24976;-47
2022/06/24 09:26:32;;;;;;;4.60;4.30;;;;;;;;;;5067699;28;24462;-47
2022/06/24 09:28:57;;;;;;;4.70;4.40;;;;;;;;;;5068641;28;24532;-47
2022/06/24 09:31:26;;;;;;;4.60;4.20;;;;;;;;;;5068326;28;24703;-47
2022/06/24 09:33:52;;;;;;;4.60;4.30;;;;;;;;;;5055822;28;25015;-47
2022/06/24 09:36:20;;;;;;;4.57;4.18;;;;;;;;;;5064247;28;24476;-48
2022/06/24 09:38:52;;;;;;;4.50;4.20;;;;;;;;;;5068536;28;24383;-47
2022/06/24 09:41:17;;;;;;;4.30;4.00;;;;;;;;;;5067792;28;24433;-47
2022/06/24 09:43:43;;;;;;;4.60;4.30;;;;;;;;;;5061289;28;24432;-48
2022/06/24 09:46:15;;;;;;;4.40;4.10;;;;;;;;;;5061251;28;24461;-47
2022/06/24 09:48:40;;;;;;;4.40;4.00;;;;;;;;;;5068127;28;24411;-47
2022/06/24 09:51:06;;;;;;;4.60;4.30;;;;;;;;;;5065358;28;24442;-47
2022/06/24 09:53:32;;;;;;;4.50;4.20;;;;;;;;;;5066739;28;24431;-47
2022/06/24 09:55:58;;;;;;;4.72;4.43;;;;;;;;;;5054624;28;24524;-47
2022/06/24 09:58:23;;;;;;;5.00;4.50;;;;;;;;;;5067286;28;25012;-48
2022/06/24 10:00:49;;;;;;;4.90;4.40;;;;;;;;;;5066525;28;24425;-47
2022/06/24 10:03:14;;;;;;;6.20;4.30;;;;;;;;;;5067226;28;24521;-47
2022/06/24 10:05:41;;;;;;;4.40;4.10;;;;;;;;;;5064503;28;24504;-47
2022/06/24 10:08:09;;;;;;;5.10;4.70;;;;;;;;;;5066236;28;24991;-47
2022/06/24 10:10:35;;;;;;;4.60;4.20;;;;;;;;;;5066168;28;24426;-47
2022/06/24 10:13:03;;;;;;;4.80;4.45;;;;;;;;;;5067627;28;24542;-47
2022/06/24 10:15:29;;;;;;;4.30;4.00;;;;;;;;;;5059451;28;24423;-47
2022/06/24 10:17:55;;;;;;;4.30;4.00;;;;;;;;;;5059268;28;24418;-48
2022/06/24 10:20:20;;;;;;;4.60;4.20;;;;;;;;;;5056108;28;24469;-47
2022/06/24 10:22:46;;;;;;;4.90;4.60;;;;;;;;;;5066367;28;24472;-47
2022/06/24 10:25:21;;;;;;;4.83;4.43;;;;;;;;;;5056084;28;24434;-47
2022/06/24 10:27:59;;;;;;;4.80;4.40;;;;;;;;;;5047929;28;24427;-48
2022/06/24 10:30:39;;;;;;;4.90;4.50;;;;;;;;;;5053408;28;24435;-47
2022/06/24 10:33:14;;;;;;;4.60;4.20;;;;;;;;;;5066782;28;24522;-47
2022/06/24 10:35:59;;;;;;;5.90;4.00;;;;;;;;;;5059750;28;24835;-47
2022/06/24 10:38:25;;;;;;;5.00;4.60;;;;;;;;;;5049993;28;24484;-48
2022/06/24 10:40:51;;;;;;;4.80;4.40;;;;;;;;;;5064431;28;24476;-48
2022/06/24 10:43:33;;;;;;;4.53;4.22;;;;;;;;;;5067029;28;24996;-46
2022/06/24 10:46:13;;;;;;;4.60;4.30;;;;;;;;;;5046655;28;24534;-47
2022/06/24 10:48:44;;;;;;;4.32;4.03;;;;;;;;;;5054694;28;24445;-47
2022/06/24 10:51:19;;;;;;;4.90;4.50;;;;;;;;;;5050344;28;24522;-47
2022/06/24 10:54:02;;;;;;;4.90;4.50;;;;;;;;;;5055578;28;24840;-48
2022/06/24 10:56:39;;;;;;;5.45;4.95;;;;;;;;;;5063256;28;24426;-47
2022/06/24 10:59:05;;;;;;;4.60;4.30;;;;;;;;;;5059617;28;24506;-47
2022/06/24 11:01:31;;;;;;;5.00;4.70;;;;;;;;;;5056880;28;24518;-48
2022/06/24 11:03:56;;;;;;;4.65;4.35;;;;;;;;;;5057242;28;24457;-46
2022/06/24 11:06:21;;;;;;;4.67;4.27;;;;;;;;;;5063849;28;24422;-46
2022/06/24 11:08:47;;;;;;;6.10;4.60;;;;;;;;;;5061496;28;25273;-46
2022/06/24 11:11:24;;;;;;;5.20;4.80;;;;;;;;;;5061957;28;24418;-47
2022/06/24 11:13:50;;;;;;;5.05;4.75;;;;;;;;;;5047099;28;24502;-47
2022/06/24 11:16:16;;;;;;;4.97;4.55;;;;;;;;;;5053549;28;25083;-48
2022/06/24 11:18:42;;;;;;;5.20;4.70;;;;;;;;;;5061152;28;24421;-49
2022/06/24 11:21:08;;;;;;;4.63;4.32;;;;;;;;;;5059848;28;24596;-48
2022/06/24 11:23:37;;;;;;;5.30;4.90;;;;;;;;;;5061141;28;24411;-48
2022/06/24 11:26:04;;;;;;;5.18;4.78;;;;;;;;;;5050131;28;24445;-48
2022/06/24 11:28:32;;;;;;;5.07;4.78;;;;;;;;;;5064914;28;25040;-47
2022/06/24 11:31:13;;;;;;;4.80;4.50;;;;;;;;;;5064331;28;24555;-47
2022/06/24 11:33:38;;;;;;;5.40;5.10;;;;;;;;;;5066314;28;24956;-47
2022/06/24 11:36:03;;;;;;;5.20;4.80;;;;;;;;;;5053369;28;24419;-48
2022/06/24 11:38:29;;;;;;;5.17;4.73;;;;;;;;;;5046362;28;24437;-47
2022/06/24 11:40:54;;;;;;;5.25;4.93;;;;;;;;;;5059341;28;24498;-47
2022/06/24 11:43:19;;;;;;;5.60;5.30;;;;;;;;;;5065433;28;24456;-45
2022/06/24 11:45:45;;;;;;;5.13;4.82;;;;;;;;;;5060008;28;24459;-47
2022/06/24 11:48:12;;;;;;;5.20;4.90;;;;;;;;;;5048724;28;24480;-46
2022/06/24 11:50:38;;;;;;;5.18;4.78;;;;;;;;;;5065551;28;24526;-47
2022/06/24 11:53:04;;;;;;;5.30;4.93;;;;;;;;;;5066032;28;24521;-46
2022/06/24 11:55:36;;;;;;;4.95;4.50;;;;;;;;;;5064613;28;24476;-46
2022/06/24 11:58:03;;;;;;;4.97;4.68;;;;;;;;;;5063632;28;24976;-46
2022/06/24 12:00:32;;;;;;;4.95;4.65;;;;;;;;;;5062444;28;25258;-47
2022/06/24 12:02:57;;;;;;;5.47;5.07;;;;;;;;;;5062266;28;25019;-47
2022/06/24 12:05:25;;;;;;;5.43;4.80;;;;;;;;;;5064174;28;24438;-47
2022/06/24 12:07:50;;;;;;;5.55;5.15;;;;;;;;;;5055931;28;24438;-46
2022/06/24 12:10:15;;;;;;;4.90;4.60;;;;;;;;;;5062632;28;24429;-46
2022/06/24 12:12:55;;;;;;;4.93;4.63;;;;;;;;;;5056731;28;24427;-47
2022/06/24 12:15:20;;;;;;;5.10;4.80;;;;;;;;;;5056902;28;24427;-46
2022/06/24 12:17:52;;;;;;;5.40;5.07;;;;;;;;;;5064833;28;24474;-47
2022/06/24 12:20:22;;;;;;;4.90;4.60;;;;;;;;;;5061641;28;24465;-47
2022/06/24 12:23:08;;;;;;;4.90;4.60;;;;;;;;;;5065036;28;24431;-47
2022/06/24 12:25:38;;;;;;;5.00;4.70;;;;;;;;;;5066390;28;24437;-48
2022/06/24 12:28:10;;;;;;;5.45;5.05;;;;;;;;;;5063966;28;24469;-47
2022/06/24 12:30:36;;;;;;;5.60;5.10;;;;;;;;;;5057408;28;24466;-47
2022/06/24 12:33:01;;;;;;;5.40;4.90;;;;;;;;;;5057178;28;24450;-47
2022/06/24 12:35:33;;;;;;;5.15;4.75;;;;;;;;;;5066624;28;24495;-46
2022/06/24 12:37:58;;;;;;;4.82;4.53;;;;;;;;;;5067784;28;24829;-46
2022/06/24 12:40:23;;;;;;;5.50;5.00;;;;;;;;;;5063059;28;24469;-47
2022/06/24 12:43:04;;;;;;;4.85;4.55;;;;;;;;;;5068652;28;25007;-47
2022/06/24 12:45:33;;;;;;;5.10;4.70;;;;;;;;;;5075652;28;24443;-47
2022/06/24 12:50:42;;;;;;;5.25;4.88;;;;;;;;;;5064208;28;24426;-47
2022/06/24 12:53:08;;;;;;;5.17;4.77;;;;;;;;;;5053516;28;24442;-47
2022/06/24 12:55:33;;;;;;;4.43;4.23;;;;;;;;;;5067908;28;25020;-46
2022/06/24 12:57:59;;;;;;;5.10;4.67;;;;;;;;;;5069211;28;24971;-49
2022/06/24 13:00:25;;;;;;;5.15;4.85;;;;;;;;;;5068184;28;24431;-46
2022/06/24 13:02:54;;;;;;;5.15;4.75;;;;;;;;;;5066400;28;24547;-46
2022/06/24 13:05:20;;;;;;;5.18;4.88;;;;;;;;;;5071282;28;24446;-46
2022/06/24 13:07:45;;;;;;;4.80;4.50;;;;;;;;;;5069175;28;24430;-46
2022/06/24 13:10:11;;;;;;;5.20;4.80;;;;;;;;;;5063214;28;24423;-47
2022/06/24 13:12:38;;;;;;;5.30;4.90;;;;;;;;;;5057777;28;24423;-46
2022/06/24 13:15:03;;;;;;;4.72;4.43;;;;;;;;;;5055697;28;24435;-47
2022/06/24 13:17:29;;;;;;;5.55;4.72;;;;;;;;;;5055426;28;25151;-46
2022/06/24 13:19:54;;;;;;;5.30;4.90;;;;;;;;;;5060130;28;24426;-47
2022/06/24 13:22:19;;;;;;;5.20;4.90;;;;;;;;;;5059593;28;24437;-47
2022/06/24 13:24:44;;;;;;;5.05;4.75;;;;;;;;;;5065822;28;24901;-46
2022/06/24 13:27:09;;;;;;;5.40;4.90;;;;;;;;;;5065831;28;24519;-47
2022/06/24 13:29:35;;;;;;;5.60;5.20;;;;;;;;;;5064036;28;24439;-47
2022/06/24 13:32:03;;;;;;;7.10;6.60;;;;;;;;;;5059769;28;24488;-46
2022/06/24 13:34:28;;;;;;;6.87;6.27;;;;;;;;;;5053860;28;24509;-46
2022/06/24 13:36:54;;;;;;;7.07;6.67;;;;;;;;;;5061253;28;25041;-46
2022/06/24 13:39:19;;;;;;;7.70;7.10;;;;;;;;;;5067158;28;24420;-46
2022/06/24 13:41:44;;;;;;;6.90;6.40;;;;;;;;;;5058816;28;24423;-46
2022/06/24 13:44:09;;;;;;;6.80;6.30;;;;;;;;;;5062202;28;24454;-46
2022/06/24 13:46:34;;;;;;;7.55;6.95;;;;;;;;;;5063204;28;24476;-46
2022/06/24 13:49:00;;;;;;;7.88;7.30;;;;;;;;;;5067171;28;24861;-47
2022/06/24 13:51:25;;;;;;;8.40;7.60;;;;;;;;;;5066710;28;24427;-46
2022/06/24 13:53:52;;;;;;;7.50;7.00;;;;;;;;;;5082632;28;24422;-47
2022/06/24 13:56:17;;;;;;;7.80;7.20;;;;;;;;;;5075067;28;24418;-47
2022/06/24 13:58:42;;;;;;;7.65;7.13;;;;;;;;;;5070386;28;24496;-46
2022/06/24 14:01:08;;;;;;;7.10;6.60;;;;;;;;;;5055193;28;24917;-46
2022/06/24 14:03:33;;;;;;;7.20;6.70;;;;;;;;;;5067120;28;24434;-46
2022/06/24 14:05:59;;;;;;;7.68;6.97;;;;;;;;;;5067259;28;24506;-46
2022/06/24 14:08:25;;;;;;;6.70;6.30;;;;;;;;;;5067837;28;24422;-47
2022/06/24 14:10:50;;;;;;;8.48;7.70;;;;;;;;;;5068230;28;24487;-46
2022/06/24 14:13:15;;;;;;;8.05;7.45;;;;;;;;;;5067887;28;24556;-46
2022/06/24 14:15:40;;;;;;;8.13;7.53;;;;;;;;;;5067805;28;24410;-46
2022/06/24 14:18:06;;;;;;;8.60;7.90;;;;;;;;;;5063720;28;24781;-46
2022/06/24 14:20:31;;;;;;;7.95;7.45;;;;;;;;;;5053237;28;24458;-46
2022/06/24 14:25:40;;;;;;;7.82;7.32;;;;;;;;;;5066869;28;24853;-47
2022/06/24 14:28:06;;;;;;;7.47;6.97;;;;;;;;;;5067560;28;24960;-47
2022/06/24 14:30:31;;;;;;;8.10;7.60;;;;;;;;;;5065427;28;24471;-47
2022/06/24 14:32:56;;;;;;;8.80;8.30;;;;;;;;;;5067601;28;24553;-46
2022/06/24 14:35:21;;;;;;;9.25;8.60;;;;;;;;;;5066262;28;24479;-45
2022/06/24 14:40:31;;;;;;;9.18;8.48;;;;;;;;;;5066199;28;25074;-46
2022/06/24 14:42:58;;;;;;;9.00;8.20;;;;;;;;;;5066066;28;24430;-46
2022/06/24 14:45:23;;;;;;;9.95;9.05;;;;;;;;;;5066958;28;24435;-46
2022/06/24 14:47:48;;;;;;;10.20;9.40;;;;;;;;;;5067100;28;24548;-48
2022/06/24 14:50:13;;;;;;;10.00;9.40;;;;;;;;;;5065577;28;24592;-48
2022/06/24 14:52:39;;;;;;;10.20;9.40;;;;;;;;;;5065734;28;25187;-49
2022/06/24 14:55:04;;;;;;;9.70;9.00;;;;;;;;;;5065894;28;24527;-49
2022/06/24 14:57:29;;;;;;;11.00;10.20;;;;;;;;;;5066257;28;24465;-49